Terminal Aerodrome Forecast
Issued by NWS

Home | Current Version | Previous Version | Text Only | Print | Product List | Glossary On
Versions: 1 2 3 4 5 6 7 8 9 10 11 12 13 14 15 16 17 18 19 20 21 22 23 24 25
000
FTUS41 KGYX 280900 AAA
TAFLEB
TAF AMD
KLEB 280900Z 2809/2906 35006KT P6SM OVC025
     FM281200 34007KT 1 1/2SM -SN BR OVC007
     FM282100 35006KT 4SM BR OVC015
     FM290000 34004KT 6SM BR OVC035=

USA.gov is the U.S. government's official web portal to all federal, state and local government web resources and services.